sensor_id;sensor_type;location;lat;lon;timestamp;temperature;humidity
47813;DHT22;34221;45.296;9.516;2023-03-23T00:00:13;15.00;64.30
47813;DHT22;34221;45.296;9.516;2023-03-23T00:00:29;15.00;65.10
47813;DHT22;34221;45.296;9.516;2023-03-23T00:00:44;15.00;64.10
47813;DHT22;34221;45.296;9.516;2023-03-23T00:00:59;15.00;64.40
47813;DHT22;34221;45.296;9.516;2023-03-23T00:01:17;15.00;64.50
47813;DHT22;34221;45.296;9.516;2023-03-23T00:01:53;15.00;64.70
47813;DHT22;34221;45.296;9.516;2023-03-23T00:02:08;15.00;64.60
47813;DHT22;34221;45.296;9.516;2023-03-23T00:02:30;15.00;63.30
47813;DHT22;34221;45.296;9.516;2023-03-23T00:02:49;15.00;63.00
47813;DHT22;34221;45.296;9.516;2023-03-23T00:03:04;14.90;63.10
47813;DHT22;34221;45.296;9.516;2023-03-23T00:03:21;14.90;63.70
47813;DHT22;34221;45.296;9.516;2023-03-23T00:03:36;14.90;63.60
47813;DHT22;34221;45.296;9.516;2023-03-23T00:03:53;14.90;63.50
47813;DHT22;34221;45.296;9.516;2023-03-23T00:04:11;14.90;63.50
47813;DHT22;34221;45.296;9.516;2023-03-23T00:04:28;14.90;63.60
47813;DHT22;34221;45.296;9.516;2023-03-23T00:04:43;14.90;63.40
47813;DHT22;34221;45.296;9.516;2023-03-23T00:04:58;14.90;63.10
47813;DHT22;34221;45.296;9.516;2023-03-23T00:05:15;14.90;62.80
47813;DHT22;34221;45.296;9.516;2023-03-23T00:05:30;14.80;63.20
47813;DHT22;34221;45.296;9.516;2023-03-23T00:05:44;14.90;63.40
47813;DHT22;34221;45.296;9.516;2023-03-23T00:06:05;14.80;63.30
47813;DHT22;34221;45.296;9.516;2023-03-23T00:06:21;14.80;63.00
47813;DHT22;34221;45.296;9.516;2023-03-23T00:06:35;14.80;63.30
47813;DHT22;34221;45.296;9.516;2023-03-23T00:06:51;14.80;63.60
47813;DHT22;34221;45.296;9.516;2023-03-23T00:07:06;14.80;63.20
47813;DHT22;34221;45.296;9.516;2023-03-23T00:07:22;14.80;63.20
47813;DHT22;34221;45.296;9.516;2023-03-23T00:07:42;14.80;63.20
47813;DHT22;34221;45.296;9.516;2023-03-23T00:07:59;14.70;63.30
47813;DHT22;34221;45.296;9.516;2023-03-23T00:08:18;14.70;63.40
47813;DHT22;34221;45.296;9.516;2023-03-23T00:08:38;14.70;63.50
47813;DHT22;34221;45.296;9.516;2023-03-23T00:09:02;14.70;63.40
47813;DHT22;34221;45.296;9.516;2023-03-23T00:09:18;14.70;63.50
47813;DHT22;34221;45.296;9.516;2023-03-23T00:09:38;14.70;63.30
47813;DHT22;34221;45.296;9.516;2023-03-23T00:09:55;14.70;63.70
47813;DHT22;34221;45.296;9.516;2023-03-23T00:10:11;14.70;63.80
47813;DHT22;34221;45.296;9.516;2023-03-23T00:10:26;14.70;64.50
47813;DHT22;34221;45.296;9.516;2023-03-23T00:10:41;14.70;63.70
47813;DHT22;34221;45.296;9.516;2023-03-23T00:10:56;14.60;63.50
47813;DHT22;34221;45.296;9.516;2023-03-23T00:11:20;14.70;63.60
47813;DHT22;34221;45.296;9.516;2023-03-23T00:11:36;14.60;63.60
47813;DHT22;34221;45.296;9.516;2023-03-23T00:11:51;14.70;63.50
47813;DHT22;34221;45.296;9.516;2023-03-23T00:12:07;14.60;63.30
47813;DHT22;34221;45.296;9.516;2023-03-23T00:12:25;14.60;63.40
47813;DHT22;34221;45.296;9.516;2023-03-23T00:12:47;14.60;63.50
47813;DHT22;34221;45.296;9.516;2023-03-23T00:13:04;14.60;63.70
47813;DHT22;34221;45.296;9.516;2023-03-23T00:13:19;14.60;63.40
47813;DHT22;34221;45.296;9.516;2023-03-23T00:13:35;14.60;63.40
47813;DHT22;34221;45.296;9.516;2023-03-23T00:13:50;14.50;63.50
47813;DHT22;34221;45.296;9.516;2023-03-23T00:14:06;14.50;63.30
47813;DHT22;34221;45.296;9.516;2023-03-23T00:14:27;14.60;63.20
47813;DHT22;34221;45.296;9.516;2023-03-23T00:14:42;14.60;63.60
47813;DHT22;34221;45.296;9.516;2023-03-23T00:14:57;14.60;63.60
47813;DHT22;34221;45.296;9.516;2023-03-23T00:15:13;14.50;63.40
47813;DHT22;34221;45.296;9.516;2023-03-23T00:15:31;14.50;63.30
47813;DHT22;34221;45.296;9.516;2023-03-23T00:15:47;14.50;63.20
47813;DHT22;34221;45.296;9.516;2023-03-23T00:16:03;14.50;63.60
47813;DHT22;34221;45.296;9.516;2023-03-23T00:16:20;14.50;63.40
47813;DHT22;34221;45.296;9.516;2023-03-23T00:16:44;14.50;63.40
47813;DHT22;34221;45.296;9.516;2023-03-23T00:17:00;14.50;63.40
47813;DHT22;34221;45.296;9.516;2023-03-23T00:17:15;14.50;63.70
47813;DHT22;34221;45.296;9.516;2023-03-23T00:17:30;14.50;63.60
47813;DHT22;34221;45.296;9.516;2023-03-23T00:17:47;14.50;63.40
47813;DHT22;34221;45.296;9.516;2023-03-23T00:18:02;14.50;62.90
47813;DHT22;34221;45.296;9.516;2023-03-23T00:18:20;14.40;63.40
47813;DHT22;34221;45.296;9.516;2023-03-23T00:18:36;14.50;63.40
47813;DHT22;34221;45.296;9.516;2023-03-23T00:18:51;14.40;63.10
47813;DHT22;34221;45.296;9.516;2023-03-23T00:19:09;14.50;63.20
47813;DHT22;34221;45.296;9.516;2023-03-23T00:19:27;14.50;63.30
47813;DHT22;34221;45.296;9.516;2023-03-23T00:19:42;14.50;63.60
47813;DHT22;34221;45.296;9.516;2023-03-23T00:20:06;14.40;63.80
47813;DHT22;34221;45.296;9.516;2023-03-23T00:20:22;14.40;63.70
47813;DHT22;34221;45.296;9.516;2023-03-23T00:20:38;14.40;63.70
47813;DHT22;34221;45.296;9.516;2023-03-23T00:20:56;14.40;63.60
47813;DHT22;34221;45.296;9.516;2023-03-23T00:21:11;14.40;63.40
47813;DHT22;34221;45.296;9.516;2023-03-23T00:21:29;14.40;63.60
47813;DHT22;34221;45.296;9.516;2023-03-23T00:21:47;14.40;63.30
47813;DHT22;34221;45.296;9.516;2023-03-23T00:22:02;14.40;63.20
47813;DHT22;34221;45.296;9.516;2023-03-23T00:22:18;14.40;63.30
47813;DHT22;34221;45.296;9.516;2023-03-23T00:22:35;14.40;63.20
47813;DHT22;34221;45.296;9.516;2023-03-23T00:22:52;14.40;63.20
47813;DHT22;34221;45.296;9.516;2023-03-23T00:23:07;14.40;63.10
47813;DHT22;34221;45.296;9.516;2023-03-23T00:23:24;14.40;63.30
47813;DHT22;34221;45.296;9.516;2023-03-23T00:23:40;14.40;63.40
47813;DHT22;34221;45.296;9.516;2023-03-23T00:23:55;14.40;63.20
47813;DHT22;34221;45.296;9.516;2023-03-23T00:24:18;14.40;63.30
47813;DHT22;34221;45.296;9.516;2023-03-23T00:24:33;14.40;63.10
47813;DHT22;34221;45.296;9.516;2023-03-23T00:24:48;14.40;63.50
47813;DHT22;34221;45.296;9.516;2023-03-23T00:25:05;14.40;63.20
47813;DHT22;34221;45.296;9.516;2023-03-23T00:25:22;14.40;63.00
47813;DHT22;34221;45.296;9.516;2023-03-23T00:25:37;14.30;63.00
47813;DHT22;34221;45.296;9.516;2023-03-23T00:25:54;14.40;63.40
47813;DHT22;34221;45.296;9.516;2023-03-23T00:26:13;14.30;63.20
47813;DHT22;34221;45.296;9.516;2023-03-23T00:26:28;14.40;63.20
47813;DHT22;34221;45.296;9.516;2023-03-23T00:26:48;14.30;63.40
47813;DHT22;34221;45.296;9.516;2023-03-23T00:27:06;14.40;63.40
47813;DHT22;34221;45.296;9.516;2023-03-23T00:27:21;14.30;63.30
47813;DHT22;34221;45.296;9.516;2023-03-23T00:27:37;14.30;63.10
47813;DHT22;34221;45.296;9.516;2023-03-23T00:27:52;14.30;63.10
47813;DHT22;34221;45.296;9.516;2023-03-23T00:28:07;14.30;63.00
47813;DHT22;34221;45.296;9.516;2023-03-23T00:28:24;14.30;62.80
47813;DHT22;34221;45.296;9.516;2023-03-23T00:28:40;14.30;62.90
47813;DHT22;34221;45.296;9.516;2023-03-23T00:28:56;14.30;62.90
47813;DHT22;34221;45.296;9.516;2023-03-23T00:29:15;14.30;62.90
47813;DHT22;34221;45.296;9.516;2023-03-23T00:29:31;14.30;63.10
47813;DHT22;34221;45.296;9.516;2023-03-23T00:29:46;14.30;63.10
47813;DHT22;34221;45.296;9.516;2023-03-23T00:30:08;14.30;63.10
47813;DHT22;34221;45.296;9.516;2023-03-23T00:30:26;14.30;62.90
47813;DHT22;34221;45.296;9.516;2023-03-23T00:30:41;14.30;62.80
47813;DHT22;34221;45.296;9.516;2023-03-23T00:31:01;14.30;62.80
47813;DHT22;34221;45.296;9.516;2023-03-23T00:31:17;14.30;62.90
47813;DHT22;34221;45.296;9.516;2023-03-23T00:31:33;14.30;62.70
47813;DHT22;34221;45.296;9.516;2023-03-23T00:31:52;14.30;62.70
47813;DHT22;34221;45.296;9.516;2023-03-23T00:32:08;14.30;62.70
47813;DHT22;34221;45.296;9.516;2023-03-23T00:32:27;14.30;62.80
47813;DHT22;34221;45.296;9.516;2023-03-23T00:32:43;14.30;62.50
47813;DHT22;34221;45.296;9.516;2023-03-23T00:32:58;14.30;62.70
47813;DHT22;34221;45.296;9.516;2023-03-23T00:33:13;14.30;62.60
47813;DHT22;34221;45.296;9.516;2023-03-23T00:33:30;14.30;62.70
47813;DHT22;34221;45.296;9.516;2023-03-23T00:33:52;14.20;62.40
47813;DHT22;34221;45.296;9.516;2023-03-23T00:34:09;14.20;63.20
47813;DHT22;34221;45.296;9.516;2023-03-23T00:34:27;14.20;62.90
47813;DHT22;34221;45.296;9.516;2023-03-23T00:34:47;14.20;62.60
47813;DHT22;34221;45.296;9.516;2023-03-23T00:35:04;14.20;62.60
47813;DHT22;34221;45.296;9.516;2023-03-23T00:35:19;14.20;62.50
47813;DHT22;34221;45.296;9.516;2023-03-23T00:35:34;14.20;62.40
47813;DHT22;34221;45.296;9.516;2023-03-23T00:35:50;14.20;62.50
47813;DHT22;34221;45.296;9.516;2023-03-23T00:36:08;14.20;62.40
47813;DHT22;34221;45.296;9.516;2023-03-23T00:36:24;14.20;62.60
47813;DHT22;34221;45.296;9.516;2023-03-23T00:36:40;14.20;62.50
47813;DHT22;34221;45.296;9.516;2023-03-23T00:36:58;14.20;62.80
47813;DHT22;34221;45.296;9.516;2023-03-23T00:37:14;14.20;62.70
47813;DHT22;34221;45.296;9.516;2023-03-23T00:37:32;14.20;62.60
47813;DHT22;34221;45.296;9.516;2023-03-23T00:37:48;14.20;62.40
47813;DHT22;34221;45.296;9.516;2023-03-23T00:38:08;14.20;62.10
47813;DHT22;34221;45.296;9.516;2023-03-23T00:38:23;14.20;62.40
47813;DHT22;34221;45.296;9.516;2023-03-23T00:38:40;14.20;62.60
47813;DHT22;34221;45.296;9.516;2023-03-23T00:38:56;14.20;62.70
47813;DHT22;34221;45.296;9.516;2023-03-23T00:39:16;14.20;62.70
47813;DHT22;34221;45.296;9.516;2023-03-23T00:39:32;14.20;62.70
47813;DHT22;34221;45.296;9.516;2023-03-23T00:39:47;14.20;62.80
47813;DHT22;34221;45.296;9.516;2023-03-23T00:40:03;14.20;62.60
47813;DHT22;34221;45.296;9.516;2023-03-23T00:40:25;14.10;62.30
47813;DHT22;34221;45.296;9.516;2023-03-23T00:40:41;14.20;62.10
47813;DHT22;34221;45.296;9.516;2023-03-23T00:40:57;14.20;62.20
47813;DHT22;34221;45.296;9.516;2023-03-23T00:41:12;14.20;62.40
47813;DHT22;34221;45.296;9.516;2023-03-23T00:41:30;14.20;62.30
47813;DHT22;34221;45.296;9.516;2023-03-23T00:41:46;14.20;62.30
47813;DHT22;34221;45.296;9.516;2023-03-23T00:42:01;14.20;62.50
47813;DHT22;34221;45.296;9.516;2023-03-23T00:42:16;14.20;62.60
47813;DHT22;34221;45.296;9.516;2023-03-23T00:42:31;14.20;62.30
47813;DHT22;34221;45.296;9.516;2023-03-23T00:42:51;14.20;62.30
47813;DHT22;34221;45.296;9.516;2023-03-23T00:43:06;14.10;62.30
47813;DHT22;34221;45.296;9.516;2023-03-23T00:43:21;14.10;62.20
47813;DHT22;34221;45.296;9.516;2023-03-23T00:43:39;14.10;62.10
47813;DHT22;34221;45.296;9.516;2023-03-23T00:43:55;14.20;62.20
47813;DHT22;34221;45.296;9.516;2023-03-23T00:44:12;14.20;61.90
47813;DHT22;34221;45.296;9.516;2023-03-23T00:44:33;14.10;61.70
47813;DHT22;34221;45.296;9.516;2023-03-23T00:44:49;14.10;61.80
47813;DHT22;34221;45.296;9.516;2023-03-23T00:45:06;14.10;62.00
47813;DHT22;34221;45.296;9.516;2023-03-23T00:45:25;14.10;62.20
47813;DHT22;34221;45.296;9.516;2023-03-23T00:45:40;14.10;62.10
47813;DHT22;34221;45.296;9.516;2023-03-23T00:45:56;14.10;61.80
47813;DHT22;34221;45.296;9.516;2023-03-23T00:46:11;14.10;62.10
47813;DHT22;34221;45.296;9.516;2023-03-23T00:46:27;14.10;62.10
47813;DHT22;34221;45.296;9.516;2023-03-23T00:46:46;14.10;62.30
47813;DHT22;34221;45.296;9.516;2023-03-23T00:47:03;14.10;62.10
47813;DHT22;34221;45.296;9.516;2023-03-23T00:47:19;14.10;62.20
47813;DHT22;34221;45.296;9.516;2023-03-23T00:47:38;14.10;61.90
47813;DHT22;34221;45.296;9.516;2023-03-23T00:47:53;14.10;61.90
47813;DHT22;34221;45.296;9.516;2023-03-23T00:48:08;14.10;62.00
47813;DHT22;34221;45.296;9.516;2023-03-23T00:48:24;14.10;61.70
47813;DHT22;34221;45.296;9.516;2023-03-23T00:48:40;14.10;61.60
47813;DHT22;34221;45.296;9.516;2023-03-23T00:48:59;14.10;61.60
47813;DHT22;34221;45.296;9.516;2023-03-23T00:49:16;14.10;61.20
47813;DHT22;34221;45.296;9.516;2023-03-23T00:49:34;14.10;61.40
47813;DHT22;34221;45.296;9.516;2023-03-23T00:49:49;14.10;61.80
47813;DHT22;34221;45.296;9.516;2023-03-23T00:50:07;14.10;61.60
47813;DHT22;34221;45.296;9.516;2023-03-23T00:50:23;14.10;61.50
47813;DHT22;34221;45.296;9.516;2023-03-23T00:50:39;14.10;61.50
47813;DHT22;34221;45.296;9.516;2023-03-23T00:50:55;14.10;61.40
47813;DHT22;34221;45.296;9.516;2023-03-23T00:51:11;14.10;61.40
47813;DHT22;34221;45.296;9.516;2023-03-23T00:51:27;14.10;61.40
47813;DHT22;34221;45.296;9.516;2023-03-23T00:52:18;14.10;61.20
47813;DHT22;34221;45.296;9.516;2023-03-23T00:52:33;14.10;61.90
47813;DHT22;34221;45.296;9.516;2023-03-23T00:52:48;14.20;61.70
47813;DHT22;34221;45.296;9.516;2023-03-23T00:53:07;14.10;61.30
47813;DHT22;34221;45.296;9.516;2023-03-23T00:53:22;14.10;61.20
47813;DHT22;34221;45.296;9.516;2023-03-23T00:53:41;14.10;61.10
47813;DHT22;34221;45.296;9.516;2023-03-23T00:53:56;14.10;61.30
47813;DHT22;34221;45.296;9.516;2023-03-23T00:54:31;14.10;61.20
47813;DHT22;34221;45.296;9.516;2023-03-23T00:54:46;14.10;61.00
47813;DHT22;34221;45.296;9.516;2023-03-23T00:55:04;14.10;60.90
47813;DHT22;34221;45.296;9.516;2023-03-23T00:55:19;14.10;61.10
47813;DHT22;34221;45.296;9.516;2023-03-23T00:55:34;14.10;61.20
47813;DHT22;34221;45.296;9.516;2023-03-23T00:55:49;14.10;61.00
47813;DHT22;34221;45.296;9.516;2023-03-23T00:56:05;14.10;61.10
47813;DHT22;34221;45.296;9.516;2023-03-23T00:56:20;14.10;61.00
47813;DHT22;34221;45.296;9.516;2023-03-23T00:56:36;14.10;60.80
47813;DHT22;34221;45.296;9.516;2023-03-23T00:56:51;14.10;61.00
47813;DHT22;34221;45.296;9.516;2023-03-23T00:57:07;14.10;61.10
47813;DHT22;34221;45.296;9.516;2023-03-23T00:57:22;14.10;61.50
47813;DHT22;34221;45.296;9.516;2023-03-23T00:57:39;14.10;61.20
47813;DHT22;34221;45.296;9.516;2023-03-23T00:57:54;14.10;61.30
47813;DHT22;34221;45.296;9.516;2023-03-23T00:58:10;14.10;61.40
47813;DHT22;34221;45.296;9.516;2023-03-23T00:58:26;14.10;61.20
47813;DHT22;34221;45.296;9.516;2023-03-23T00:58:41;14.10;61.20
47813;DHT22;34221;45.296;9.516;2023-03-23T00:58:56;14.10;61.20
47813;DHT22;34221;45.296;9.516;2023-03-23T00:59:12;14.10;61.20
47813;DHT22;34221;45.296;9.516;2023-03-23T00:59:27;14.10;61.20
47813;DHT22;34221;45.296;9.516;2023-03-23T00:59:42;14.10;61.40
47813;DHT22;34221;45.296;9.516;2023-03-23T00:59:57;14.10;61.60
47813;DHT22;34221;45.296;9.516;2023-03-23T01:00:12;14.10;61.20
47813;DHT22;34221;45.296;9.516;2023-03-23T01:00:28;14.10;61.00
47813;DHT22;34221;45.296;9.516;2023-03-23T01:00:43;14.10;61.10
47813;DHT22;34221;45.296;9.516;2023-03-23T01:00:58;14.10;60.90
47813;DHT22;34221;45.296;9.516;2023-03-23T01:01:13;14.10;61.40
47813;DHT22;34221;45.296;9.516;2023-03-23T01:01:29;14.00;61.10
47813;DHT22;34221;45.296;9.516;2023-03-23T01:01:46;14.10;60.80
47813;DHT22;34221;45.296;9.516;2023-03-23T01:02:23;14.10;60.90
47813;DHT22;34221;45.296;9.516;2023-03-23T01:02:42;14.10;61.70
47813;DHT22;34221;45.296;9.516;2023-03-23T01:02:58;14.00;61.40
47813;DHT22;34221;45.296;9.516;2023-03-23T01:03:13;14.00;61.40
47813;DHT22;34221;45.296;9.516;2023-03-23T01:03:33;14.00;61.10
47813;DHT22;34221;45.296;9.516;2023-03-23T01:03:49;14.00;61.70
47813;DHT22;34221;45.296;9.516;2023-03-23T01:04:04;14.00;61.30
47813;DHT22;34221;45.296;9.516;2023-03-23T01:04:20;14.00;60.90
47813;DHT22;34221;45.296;9.516;2023-03-23T01:04:38;14.00;61.00
47813;DHT22;34221;45.296;9.516;2023-03-23T01:04:54;14.00;61.60
47813;DHT22;34221;45.296;9.516;2023-03-23T01:05:10;14.00;61.50
47813;DHT22;34221;45.296;9.516;2023-03-23T01:05:25;14.00;61.40
47813;DHT22;34221;45.296;9.516;2023-03-23T01:05:46;14.00;61.50
47813;DHT22;34221;45.296;9.516;2023-03-23T01:06:10;14.00;61.50
47813;DHT22;34221;45.296;9.516;2023-03-23T01:06:32;14.10;61.50
47813;DHT22;34221;45.296;9.516;2023-03-23T01:06:54;14.00;61.40
47813;DHT22;34221;45.296;9.516;2023-03-23T01:07:11;14.00;60.90
47813;DHT22;34221;45.296;9.516;2023-03-23T01:07:32;14.00;60.90
47813;DHT22;34221;45.296;9.516;2023-03-23T01:07:49;14.00;61.10
47813;DHT22;34221;45.296;9.516;2023-03-23T01:08:05;14.00;61.20
47813;DHT22;34221;45.296;9.516;2023-03-23T01:08:22;14.00;61.40
47813;DHT22;34221;45.296;9.516;2023-03-23T01:08:39;14.00;61.40
47813;DHT22;34221;45.296;9.516;2023-03-23T01:08:59;14.00;61.50
47813;DHT22;34221;45.296;9.516;2023-03-23T01:09:16;14.00;61.10
47813;DHT22;34221;45.296;9.516;2023-03-23T01:09:32;13.90;61.20
47813;DHT22;34221;45.296;9.516;2023-03-23T01:09:47;14.00;61.50
47813;DHT22;34221;45.296;9.516;2023-03-23T01:10:03;14.00;61.40
47813;DHT22;34221;45.296;9.516;2023-03-23T01:10:19;13.90;61.20
47813;DHT22;34221;45.296;9.516;2023-03-23T01:10:34;14.00;61.10
47813;DHT22;34221;45.296;9.516;2023-03-23T01:11:05;14.00;61.30
47813;DHT22;34221;45.296;9.516;2023-03-23T01:11:21;14.00;61.50
47813;DHT22;34221;45.296;9.516;2023-03-23T01:11:36;14.00;61.70
47813;DHT22;34221;45.296;9.516;2023-03-23T01:11:53;14.00;61.80
47813;DHT22;34221;45.296;9.516;2023-03-23T01:12:11;14.00;61.90
47813;DHT22;34221;45.296;9.516;2023-03-23T01:12:26;14.00;61.40
47813;DHT22;34221;45.296;9.516;2023-03-23T01:12:43;14.00;61.70
47813;DHT22;34221;45.296;9.516;2023-03-23T01:13:00;14.00;62.20
47813;DHT22;34221;45.296;9.516;2023-03-23T01:13:16;14.00;61.90
47813;DHT22;34221;45.296;9.516;2023-03-23T01:13:31;14.00;62.00
47813;DHT22;34221;45.296;9.516;2023-03-23T01:13:46;14.10;62.20
47813;DHT22;34221;45.296;9.516;2023-03-23T01:14:01;14.10;62.40
47813;DHT22;34221;45.296;9.516;2023-03-23T01:14:18;14.00;62.40
47813;DHT22;34221;45.296;9.516;2023-03-23T01:14:34;14.10;62.00
47813;DHT22;34221;45.296;9.516;2023-03-23T01:14:49;14.00;62.20
47813;DHT22;34221;45.296;9.516;2023-03-23T01:15:05;14.10;62.20
47813;DHT22;34221;45.296;9.516;2023-03-23T01:15:21;14.10;61.20
47813;DHT22;34221;45.296;9.516;2023-03-23T01:15:36;14.00;60.50
47813;DHT22;34221;45.296;9.516;2023-03-23T01:15:51;14.10;60.70
47813;DHT22;34221;45.296;9.516;2023-03-23T01:16:06;14.00;60.90
47813;DHT22;34221;45.296;9.516;2023-03-23T01:16:21;14.10;61.20
47813;DHT22;34221;45.296;9.516;2023-03-23T01:16:36;14.10;61.30
47813;DHT22;34221;45.296;9.516;2023-03-23T01:16:52;14.10;61.70
47813;DHT22;34221;45.296;9.516;2023-03-23T01:17:07;14.10;61.70
47813;DHT22;34221;45.296;9.516;2023-03-23T01:17:23;14.10;61.60
47813;DHT22;34221;45.296;9.516;2023-03-23T01:17:38;14.10;60.90
47813;DHT22;34221;45.296;9.516;2023-03-23T01:17:53;14.10;60.80
47813;DHT22;34221;45.296;9.516;2023-03-23T01:18:09;14.10;60.70
47813;DHT22;34221;45.296;9.516;2023-03-23T01:18:24;14.10;60.70
47813;DHT22;34221;45.296;9.516;2023-03-23T01:18:39;14.10;60.20
47813;DHT22;34221;45.296;9.516;2023-03-23T01:18:55;14.10;60.30
47813;DHT22;34221;45.296;9.516;2023-03-23T01:19:10;14.10;60.20
47813;DHT22;34221;45.296;9.516;2023-03-23T01:19:25;14.10;60.30
47813;DHT22;34221;45.296;9.516;2023-03-23T01:19:41;14.10;60.10
47813;DHT22;34221;45.296;9.516;2023-03-23T01:19:57;14.10;60.50
47813;DHT22;34221;45.296;9.516;2023-03-23T01:20:14;14.10;60.70
47813;DHT22;34221;45.296;9.516;2023-03-23T01:20:30;14.10;60.30
47813;DHT22;34221;45.296;9.516;2023-03-23T01:20:46;14.10;60.60
47813;DHT22;34221;45.296;9.516;2023-03-23T01:21:09;14.00;59.70
47813;DHT22;34221;45.296;9.516;2023-03-23T01:21:25;14.00;60.00
47813;DHT22;34221;45.296;9.516;2023-03-23T01:21:41;14.10;60.00
47813;DHT22;34221;45.296;9.516;2023-03-23T01:21:56;14.00;60.10
47813;DHT22;34221;45.296;9.516;2023-03-23T01:22:10;14.00;60.80
47813;DHT22;34221;45.296;9.516;2023-03-23T01:22:26;14.00;60.70
47813;DHT22;34221;45.296;9.516;2023-03-23T01:22:42;14.00;60.60
47813;DHT22;34221;45.296;9.516;2023-03-23T01:22:58;14.10;61.50
47813;DHT22;34221;45.296;9.516;2023-03-23T01:23:15;14.00;60.60
47813;DHT22;34221;45.296;9.516;2023-03-23T01:23:30;14.10;60.50
47813;DHT22;34221;45.296;9.516;2023-03-23T01:23:47;14.10;60.20
47813;DHT22;34221;45.296;9.516;2023-03-23T01:24:02;14.00;60.40
47813;DHT22;34221;45.296;9.516;2023-03-23T01:24:18;14.00;60.40
47813;DHT22;34221;45.296;9.516;2023-03-23T01:24:33;14.10;60.10
47813;DHT22;34221;45.296;9.516;2023-03-23T01:24:48;14.00;60.00
47813;DHT22;34221;45.296;9.516;2023-03-23T01:25:03;14.00;60.00
47813;DHT22;34221;45.296;9.516;2023-03-23T01:25:19;14.00;60.20
47813;DHT22;34221;45.296;9.516;2023-03-23T01:25:35;14.00;59.90
47813;DHT22;34221;45.296;9.516;2023-03-23T01:25:51;14.00;60.00
47813;DHT22;34221;45.296;9.516;2023-03-23T01:26:11;14.00;60.50
47813;DHT22;34221;45.296;9.516;2023-03-23T01:26:28;14.00;60.30
47813;DHT22;34221;45.296;9.516;2023-03-23T01:26:43;14.00;60.50
47813;DHT22;34221;45.296;9.516;2023-03-23T01:26:59;14.00;61.10
47813;DHT22;34221;45.296;9.516;2023-03-23T01:27:21;14.00;60.00
47813;DHT22;34221;45.296;9.516;2023-03-23T01:27:36;14.00;59.90
47813;DHT22;34221;45.296;9.516;2023-03-23T01:27:51;14.00;59.90
47813;DHT22;34221;45.296;9.516;2023-03-23T01:28:06;14.00;59.80
47813;DHT22;34221;45.296;9.516;2023-03-23T01:28:21;14.00;59.80
47813;DHT22;34221;45.296;9.516;2023-03-23T01:28:36;14.00;59.80
47813;DHT22;34221;45.296;9.516;2023-03-23T01:28:53;14.00;60.10
47813;DHT22;34221;45.296;9.516;2023-03-23T01:29:08;14.00;60.00
47813;DHT22;34221;45.296;9.516;2023-03-23T01:29:23;14.00;59.90
47813;DHT22;34221;45.296;9.516;2023-03-23T01:29:38;14.00;59.80
47813;DHT22;34221;45.296;9.516;2023-03-23T01:29:53;14.00;59.70
47813;DHT22;34221;45.296;9.516;2023-03-23T01:30:10;14.00;59.50
47813;DHT22;34221;45.296;9.516;2023-03-23T01:30:27;14.00;59.10
47813;DHT22;34221;45.296;9.516;2023-03-23T01:30:42;14.00;59.40
47813;DHT22;34221;45.296;9.516;2023-03-23T01:31:05;13.90;59.20
47813;DHT22;34221;45.296;9.516;2023-03-23T01:31:25;13.90;59.20
47813;DHT22;34221;45.296;9.516;2023-03-23T01:31:40;13.90;59.50
47813;DHT22;34221;45.296;9.516;2023-03-23T01:31:57;13.90;59.70
47813;DHT22;34221;45.296;9.516;2023-03-23T01:32:12;13.90;59.70
47813;DHT22;34221;45.296;9.516;2023-03-23T01:32:29;13.90;59.60
47813;DHT22;34221;45.296;9.516;2023-03-23T01:32:44;13.90;59.40
47813;DHT22;34221;45.296;9.516;2023-03-23T01:33:00;13.90;59.40
47813;DHT22;34221;45.296;9.516;2023-03-23T01:33:14;13.90;59.90
47813;DHT22;34221;45.296;9.516;2023-03-23T01:33:31;13.90;59.60
47813;DHT22;34221;45.296;9.516;2023-03-23T01:33:47;13.90;59.40
47813;DHT22;34221;45.296;9.516;2023-03-23T01:34:05;13.90;59.60
47813;DHT22;34221;45.296;9.516;2023-03-23T01:34:20;13.90;59.70
47813;DHT22;34221;45.296;9.516;2023-03-23T01:34:36;13.90;59.80
47813;DHT22;34221;45.296;9.516;2023-03-23T01:34:51;13.90;60.00
47813;DHT22;34221;45.296;9.516;2023-03-23T01:35:06;13.90;59.60
47813;DHT22;34221;45.296;9.516;2023-03-23T01:35:22;13.90;59.40
47813;DHT22;34221;45.296;9.516;2023-03-23T01:35:37;13.90;59.60
47813;DHT22;34221;45.296;9.516;2023-03-23T01:35:53;13.90;59.90
47813;DHT22;34221;45.296;9.516;2023-03-23T01:36:17;13.90;59.70
47813;DHT22;34221;45.296;9.516;2023-03-23T01:36:35;13.90;59.50
47813;DHT22;34221;45.296;9.516;2023-03-23T01:36:51;13.90;59.80
47813;DHT22;34221;45.296;9.516;2023-03-23T01:37:06;13.90;59.80
47813;DHT22;34221;45.296;9.516;2023-03-23T01:37:21;13.90;59.90
47813;DHT22;34221;45.296;9.516;2023-03-23T01:37:42;13.90;59.60
47813;DHT22;34221;45.296;9.516;2023-03-23T01:37:57;13.90;59.80
47813;DHT22;34221;45.296;9.516;2023-03-23T01:38:12;13.90;59.80
47813;DHT22;34221;45.296;9.516;2023-03-23T01:38:27;13.80;59.80
47813;DHT22;34221;45.296;9.516;2023-03-23T01:38:46;13.90;60.00
47813;DHT22;34221;45.296;9.516;2023-03-23T01:39:04;13.90;60.30
47813;DHT22;34221;45.296;9.516;2023-03-23T01:39:21;13.90;60.00
47813;DHT22;34221;45.296;9.516;2023-03-23T01:39:36;13.90;60.20
47813;DHT22;34221;45.296;9.516;2023-03-23T01:39:53;13.90;60.00
47813;DHT22;34221;45.296;9.516;2023-03-23T01:40:09;13.80;60.40
47813;DHT22;34221;45.296;9.516;2023-03-23T01:40:26;13.90;60.80
47813;DHT22;34221;45.296;9.516;2023-03-23T01:40:43;13.90;60.60
47813;DHT22;34221;45.296;9.516;2023-03-23T01:40:58;13.90;60.80
47813;DHT22;34221;45.296;9.516;2023-03-23T01:41:14;13.80;60.40
47813;DHT22;34221;45.296;9.516;2023-03-23T01:41:32;13.90;60.40
47813;DHT22;34221;45.296;9.516;2023-03-23T01:41:52;13.90;60.20
47813;DHT22;34221;45.296;9.516;2023-03-23T01:42:10;13.80;60.30
47813;DHT22;34221;45.296;9.516;2023-03-23T01:42:30;13.90;59.90
47813;DHT22;34221;45.296;9.516;2023-03-23T01:42:48;13.80;60.10
47813;DHT22;34221;45.296;9.516;2023-03-23T01:43:13;13.80;60.50
47813;DHT22;34221;45.296;9.516;2023-03-23T01:43:31;13.80;60.70
47813;DHT22;34221;45.296;9.516;2023-03-23T01:44:05;13.80;60.50
47813;DHT22;34221;45.296;9.516;2023-03-23T01:45:36;13.80;59.70
47813;DHT22;34221;45.296;9.516;2023-03-23T01:45:51;13.90;60.20
47813;DHT22;34221;45.296;9.516;2023-03-23T01:46:06;13.80;60.60
47813;DHT22;34221;45.296;9.516;2023-03-23T01:46:21;13.90;60.10
47813;DHT22;34221;45.296;9.516;2023-03-23T01:46:37;13.80;59.80
47813;DHT22;34221;45.296;9.516;2023-03-23T01:46:51;13.80;59.90
47813;DHT22;34221;45.296;9.516;2023-03-23T01:47:08;13.80;59.90
47813;DHT22;34221;45.296;9.516;2023-03-23T01:47:25;13.90;60.00
47813;DHT22;34221;45.296;9.516;2023-03-23T01:47:41;13.90;60.40
47813;DHT22;34221;45.296;9.516;2023-03-23T01:48:13;13.80;60.40
47813;DHT22;34221;45.296;9.516;2023-03-23T01:48:36;13.90;60.00